Resolute — WTW2234 — position and weather

sailwx.info

Track history (hours):
 
Tides and Currents Weather Stations Pressure Air Temp Water Temp Dewpoint Dewpoint Depression Visibility Wind Speed Wind Dir Waves Ship Positions

Resolute

Owner: Providence Steamboat Co., PROVIDENCE, RI. More information available from US FCC via Universal Licensing System and Coast Guard Vessel Documentation Center.

Last reported at 2015-Sep-02 16:33 UTC. Time now 2015-Sep-02 16:59 UTC.
Position N 40°38' W 074°10'.

Length 30 m; draft 4 m.

Type: Tug. MMSI: 367091630.

Date/timePositionNaut miles runAvg speedWind from/ knotsBaromVisibWave heightAir tempDewpointWater temp
2015-Sep-02 16:33N 40°38' W 074°10'0 0.0
2015-Sep-02 15:33N 40°38' W 074°10'0 0.0
2015-Sep-02 14:33N 40°38' W 074°10'0 0.0
2015-Sep-02 13:33N 40°38' W 074°10'0 0.0
2015-Sep-02 12:33N 40°38' W 074°10'1 0.7
2015-Sep-02 11:34N 40°38' W 074°09'1 1.5
2015-Sep-02 10:33N 40°40' W 074°09'1 0.5
2015-Sep-02 09:33N 40°39' W 074°09'1 1.3
2015-Sep-02 08:33N 40°38' W 074°10'0 0.0
2015-Sep-02 07:33N 40°38' W 074°10'0 0.0
2015-Sep-02 06:33N 40°38' W 074°10'0 0.0
2015-Sep-02 05:33N 40°38' W 074°10'0 0.0
2015-Sep-02 04:33N 40°38' W 074°10'0 0.0
2015-Sep-02 03:33N 40°38' W 074°10'2 2.2
2015-Sep-02 02:33N 40°40' W 074°08'0 0.1
2015-Sep-02 01:33N 40°40' W 074°08'5 5.5
2015-Sep-02 00:33N 40°36' W 074°12'0 0.0
2015-Sep-01 23:33N 40°36' W 074°12'1 1.3
2015-Sep-01 22:33N 40°37' W 074°12'7 7.4
2015-Sep-01 21:34N 40°39' W 074°03'1 0.8
2015-Sep-01 20:33N 40°40' W 074°04'4 4.5
2015-Sep-01 19:33N 40°38' W 074°10'0 0.0
2015-Sep-01 18:33N 40°38' W 074°10'0 0.0
2015-Sep-01 17:33N 40°38' W 074°10'0 0.0
2015-Sep-01 16:33N 40°38' W 074°10'0 0.0
2015-Sep-01 15:33N 40°38' W 074°10'5 4.5
2015-Sep-01 14:33N 40°40' W 074°04'2 1.9
2015-Sep-01 13:33N 40°38' W 074°03'2 1.8
2015-Sep-01 12:33N 40°40' W 074°04'0 0.0
2015-Sep-01 11:33N 40°40' W 074°04'1 0.6
2015-Sep-01 10:33N 40°39' W 074°04'0 0.4
2015-Sep-01 09:33N 40°39' W 074°04'2 2.0
2015-Sep-01 08:33N 40°41' W 074°03'1 1.4
2015-Sep-01 07:33N 40°40' W 074°04'0 0.0
2015-Sep-01 06:33N 40°40' W 074°04'0 0.0
2015-Sep-01 05:33N 40°40' W 074°04'0 0.0
2015-Sep-01 04:33N 40°40' W 074°04'0 0.0
2015-Sep-01 03:33N 40°40' W 074°04'0 0.0
2015-Sep-01 02:33N 40°40' W 074°04'1 1.0
2015-Sep-01 01:33N 40°39' W 074°05'1 1.0
2015-Sep-01 00:33N 40°40' W 074°04'1 0.8
2015-Aug-31 23:33N 40°39' W 074°04'3 3.4
2015-Aug-31 22:33N 40°40' W 074°09'0 0.0
2015-Aug-31 21:33N 40°40' W 074°09'2 2.1
2015-Aug-31 20:33N 40°39' W 074°06'2 2.5
2015-Aug-31 19:33N 40°39' W 074°03'1 1.3
2015-Aug-31 18:33N 40°41' W 074°03'6 5.8
2015-Aug-31 17:33N 40°38' W 074°10'0 0.0
2015-Aug-31 16:33N 40°38' W 074°10'0 0.0
2015-Aug-31 15:33N 40°38' W 074°10'0 0.1
2015-Aug-31 14:33N 40°38' W 074°10'4 3.6
2015-Aug-31 13:33N 40°39' W 074°05'0 0.4
2015-Aug-31 12:33N 40°39' W 074°05'1 1.0
2015-Aug-31 11:33N 40°39' W 074°06'2 2.3
2015-Aug-31 10:33N 40°39' W 074°09'2 2.3
2015-Aug-31 09:33N 40°39' W 074°06'0 0.0
2015-Aug-31 08:33N 40°39' W 074°06'0 0.0
2015-Aug-31 07:33N 40°39' W 074°06'0 0.0
2015-Aug-31 06:33N 40°39' W 074°06'0 0.0
2015-Aug-31 05:33N 40°39' W 074°06'1 0.9
2015-Aug-31 04:33N 40°39' W 074°07'5 4.9
2015-Aug-31 03:33N 40°42' W 074°02'7 6.9
2015-Aug-31 02:33N 40°47' W 073°56'5 4.6
2015-Aug-31 01:33N 40°48' W 073°50'18 6.2
2015-Aug-30 22:33N 40°58' W 073°29'8 7.7
2015-Aug-30 21:33N 41°00' W 073°19'10 8.0
2015-Aug-30 20:21N 40°59' W 073°07'3 0.3
2015-Aug-30 08:13N 40°60' W 073°11'5 7.5
2015-Aug-30 07:33N 41°00' W 073°18'8 7.8
2015-Aug-30 06:33N 40°59' W 073°28'20 6.5
2015-Aug-30 03:28N 40°48' W 073°50'5 5.4
2015-Aug-30 02:33N 40°46' W 073°57'6 6.1
2015-Aug-30 01:33N 40°41' W 074°01'2 1.7
2015-Aug-30 00:33N 40°40' W 074°02'0 0.0
2015-Aug-29 23:33N 40°40' W 074°02'0 0.0
2015-Aug-29 22:33N 40°40' W 074°02'0 0.0
2015-Aug-29 21:33N 40°40' W 074°02'2 1.9
2015-Aug-29 20:33N 40°39' W 074°05'5 5.3
2015-Aug-29 19:33N 40°38' W 074°12'3 2.7
2015-Aug-29 18:24N 40°35' W 074°12'0 0.2
2015-Aug-29 17:33N 40°35' W 074°12'4 3.6
2015-Aug-29 16:33N 40°38' W 074°10'0 0.0
2015-Aug-29 15:33N 40°38' W 074°10'0 0.0
2015-Aug-29 14:33N 40°38' W 074°10'0 0.0
2015-Aug-29 13:33N 40°38' W 074°10'0 0.0
2015-Aug-29 12:34N 40°38' W 074°10'0 0.0
2015-Aug-29 11:33N 40°38' W 074°10'0 0.0
2015-Aug-29 10:33N 40°38' W 074°10'0 0.0
2015-Aug-29 09:33N 40°38' W 074°10'0 0.0
2015-Aug-29 08:33N 40°38' W 074°10'0 0.0
2015-Aug-29 07:33N 40°38' W 074°10'0 0.0
2015-Aug-29 06:33N 40°38' W 074°10'0 0.0
2015-Aug-29 05:33N 40°38' W 074°10'0 0.0
2015-Aug-29 04:33N 40°38' W 074°10'0 0.0
2015-Aug-29 03:33N 40°38' W 074°10'8 7.5
2015-Aug-29 02:33N 40°41' W 074°01'3 3.1
2015-Aug-29 01:33N 40°39' W 074°04'5 4.8
2015-Aug-29 00:33N 40°38' W 074°10'1 1.4
2015-Aug-28 23:33N 40°39' W 074°09'2 2.0
2015-Aug-28 22:33N 40°41' W 074°08'2 2.1
2015-Aug-28 21:33N 40°39' W 074°09'1 0.9
2015-Aug-28 20:33N 40°40' W 074°08'0 0.3
2015-Aug-28 19:33N 40°40' W 074°08'0 0.0
2015-Aug-28 18:33N 40°40' W 074°08'0 0.0
2015-Aug-28 17:33N 40°40' W 074°08'0 0.0
2015-Aug-28 16:33N 40°40' W 074°08'0 0.0
2015-Aug-28 15:33N 40°40' W 074°08'0 0.0
2015-Aug-28 14:33N 40°40' W 074°08'0 0.0
2015-Aug-28 13:33N 40°40' W 074°08'0 0.0
2015-Aug-28 12:33N 40°40' W 074°08'0 0.0
2015-Aug-28 11:33N 40°40' W 074°08'2 1.9
2015-Aug-28 10:33N 40°39' W 074°09'1 1.3
2015-Aug-28 09:33N 40°40' W 074°09'1 0.7
2015-Aug-28 08:33N 40°40' W 074°08'0 0.0
2015-Aug-28 07:33N 40°40' W 074°08'0 0.0
2015-Aug-28 06:33N 40°40' W 074°08'0 0.0
2015-Aug-28 05:33N 40°40' W 074°08'0 0.0
2015-Aug-28 04:33N 40°40' W 074°08'0 0.0
2015-Aug-28 03:33N 40°40' W 074°08'1 0.7
2015-Aug-28 02:33N 40°41' W 074°09'2 1.7
2015-Aug-28 01:33N 40°39' W 074°09'2 1.8
2015-Aug-28 00:33N 40°39' W 074°06'1 0.6
2015-Aug-27 23:33N 40°39' W 074°06'0 0.5
2015-Aug-27 22:33N 40°39' W 074°05'1 1.3
2015-Aug-27 21:33N 40°40' W 074°05'2 1.7
2015-Aug-27 20:33N 40°39' W 074°06'4 4.0
2015-Aug-27 19:33N 40°39' W 074°11'1 1.1
2015-Aug-27 18:33N 40°38' W 074°10'0 0.0
2015-Aug-27 17:33N 40°38' W 074°10'0 0.0
2015-Aug-27 16:33N 40°38' W 074°10'0 0.0
2015-Aug-27 15:33N 40°38' W 074°10'0 0.0
2015-Aug-27 14:33N 40°38' W 074°10'0 0.0
2015-Aug-27 13:33N 40°38' W 074°10'0 0.0
2015-Aug-27 12:33N 40°38' W 074°10'0 0.0
2015-Aug-27 11:33N 40°38' W 074°10'3 3.5
2015-Aug-27 10:33N 40°42' W 074°09'3 3.2
2015-Aug-27 09:31N 40°39' W 074°09'1 0.8
2015-Aug-27 08:34N 40°38' W 074°10'0 0.0
2015-Aug-27 07:33N 40°38' W 074°10'0 0.0
2015-Aug-27 06:33N 40°38' W 074°10'2 2.2
2015-Aug-27 05:33N 40°40' W 074°08'1 0.6
2015-Aug-27 04:33N 40°41' W 074°09'2 2.3
2015-Aug-27 03:27N 40°38' W 074°10'0 0.0
2015-Aug-27 02:27N 40°38' W 074°10'0 0.0
2015-Aug-27 01:33N 40°38' W 074°10'0 0.0
2015-Aug-27 00:33N 40°38' W 074°10'0 0.0
2015-Aug-26 23:33N 40°38' W 074°10'1 0.5
2015-Aug-26 22:33N 40°38' W 074°09'1 0.5
2015-Aug-26 21:33N 40°38' W 074°10'0 0.0
2015-Aug-26 20:33N 40°38' W 074°10'0 0.0
2015-Aug-26 19:25N 40°38' W 074°10'0 0.0
2015-Aug-26 18:21N 40°38' W 074°10'0 0.0
2015-Aug-26 17:07N 40°38' W 074°10'0 0.0
2015-Aug-26 16:26N 40°38' W 074°10'1 1.6
2015-Aug-26 15:32N 40°38' W 074°12'2 1.9
2015-Aug-26 14:32N 40°36' W 074°12'0 0.1
2015-Aug-26 13:27N 40°36' W 074°12'0 0.0
2015-Aug-26 12:25N 40°36' W 074°12'0 0.0
2015-Aug-26 11:32N 40°36' W 074°12'0 0.1
2015-Aug-26 09:23N 40°36' W 074°12'4 0.8
2015-Aug-26 04:06N 40°32' W 074°15'3 5.4
2015-Aug-26 03:31N 40°35' W 074°13'4 4.1
2015-Aug-26 02:32N 40°39' W 074°10'0 0.1
2015-Aug-26 01:34N 40°38' W 074°10'0 0.0
2015-Aug-26 00:33N 40°38' W 074°10'0 0.0
2015-Aug-25 23:33N 40°38' W 074°10'0 0.0
2015-Aug-25 22:24N 40°38' W 074°10'0 0.0
2015-Aug-25 21:34N 40°38' W 074°10'0 0.0
2015-Aug-25 20:33N 40°38' W 074°10'0 0.0
2015-Aug-25 19:33N 40°38' W 074°10'0 0.0
2015-Aug-25 18:33N 40°38' W 074°10'2 1.9
2015-Aug-25 17:28N 40°38' W 074°12'2 2.3
2015-Aug-25 16:33N 40°38' W 074°10'0 0.0
2015-Aug-25 15:33N 40°38' W 074°10'0 0.0
2015-Aug-25 14:33N 40°38' W 074°10'0 0.0
2015-Aug-25 13:33N 40°38' W 074°10'0 0.0
2015-Aug-25 12:33N 40°38' W 074°10'0 0.0
2015-Aug-25 11:33N 40°38' W 074°10'0 0.0
2015-Aug-25 10:33N 40°38' W 074°10'3 2.8
2015-Aug-25 09:33N 40°39' W 074°06'2 1.5
2015-Aug-25 08:33N 40°39' W 074°04'4 4.3
2015-Aug-25 07:33N 40°38' W 074°10'0 0.0
2015-Aug-25 06:33N 40°38' W 074°10'0 0.0
2015-Aug-25 05:33N 40°38' W 074°10'0 0.0
2015-Aug-25 04:33N 40°38' W 074°10'0 0.0
2015-Aug-25 03:33N 40°38' W 074°10'1 0.6
2015-Aug-25 02:33N 40°39' W 074°10'8 7.5
2015-Aug-25 01:32N 40°32' W 074°15'1 1.1
2015-Aug-25 00:33N 40°31' W 074°15'0 0.3
2015-Aug-24 23:33N 40°31' W 074°15'1 0.4
2015-Aug-24 20:09N 40°33' W 074°15'0 0.0
2015-Aug-24 19:18N 40°33' W 074°15'0 0.2
2015-Aug-24 18:22N 40°33' W 074°15'0 0.2
2015-Aug-24 17:32N 40°33' W 074°15'3 2.6
2015-Aug-24 16:30N 40°34' W 074°13'5 4.9
2015-Aug-24 15:33N 40°38' W 074°10'2 1.6
2015-Aug-24 14:33N 40°40' W 074°09'2 1.6
2015-Aug-24 13:33N 40°38' W 074°10'0 0.0
2015-Aug-24 12:33N 40°38' W 074°10'0 0.0
2015-Aug-24 11:33N 40°38' W 074°10'0 0.0
2015-Aug-24 10:33N 40°38' W 074°10'0 0.0
2015-Aug-24 09:33N 40°38' W 074°10'0 0.0
2015-Aug-24 08:33N 40°38' W 074°10'0 0.0
2015-Aug-24 07:33N 40°38' W 074°10'0 0.0
2015-Aug-24 06:33N 40°38' W 074°10'0 0.0
2015-Aug-24 05:33N 40°38' W 074°10'0 0.0
2015-Aug-24 04:33N 40°38' W 074°10'0 0.0
2015-Aug-24 03:33N 40°38' W 074°10'0 0.0
2015-Aug-24 02:33N 40°38' W 074°10'1 1.2
2015-Aug-24 01:33N 40°38' W 074°12'2 1.9
2015-Aug-24 00:33N 40°37' W 074°12'3 3.3
2015-Aug-23 23:31N 40°34' W 074°14'3 2.6
2015-Aug-23 22:29N 40°36' W 074°12'7 7.6
2015-Aug-23 21:33N 40°39' W 074°04'1 0.6
2015-Aug-23 20:33N 40°40' W 074°04'0 0.0
2015-Aug-23 19:33N 40°40' W 074°04'0 0.0
2015-Aug-23 18:33N 40°40' W 074°04'0 0.3
2015-Aug-23 17:33N 40°40' W 074°05'  
Track history (hours):
 
Tides and Currents Weather Stations Pressure Air Temp Water Temp Dewpoint Dewpoint Depression Visibility Wind Speed Wind Dir Waves Ship Positions

Resolute

Owner: Providence Steamboat Co., PROVIDENCE, RI. More information available from US FCC via Universal Licensing System and Coast Guard Vessel Documentation Center.

Last reported at 2015-Sep-02 16:33 UTC. Time now 2015-Sep-02 16:59 UTC.
Position N 40°38' W 074°10'.

Length 30 m; draft 4 m.

Type: Tug. MMSI: 367091630.

Date/timePositionNaut miles runAvg speedWind from/ knotsBaromVisibWave heightAir tempDewpointWater temp
2015-Sep-02 16:33N 40°38' W 074°10'0 0.0
2015-Sep-02 15:33N 40°38' W 074°10'0 0.0
2015-Sep-02 14:33N 40°38' W 074°10'0 0.0
2015-Sep-02 13:33N 40°38' W 074°10'0 0.0
2015-Sep-02 12:33N 40°38' W 074°10'1 0.7
2015-Sep-02 11:34N 40°38' W 074°09'1 1.5
2015-Sep-02 10:33N 40°40' W 074°09'1 0.5
2015-Sep-02 09:33N 40°39' W 074°09'1 1.3
2015-Sep-02 08:33N 40°38' W 074°10'0 0.0
2015-Sep-02 07:33N 40°38' W 074°10'0 0.0
2015-Sep-02 06:33N 40°38' W 074°10'0 0.0
2015-Sep-02 05:33N 40°38' W 074°10'0 0.0
2015-Sep-02 04:33N 40°38' W 074°10'0 0.0
2015-Sep-02 03:33N 40°38' W 074°10'2 2.2
2015-Sep-02 02:33N 40°40' W 074°08'0 0.1
2015-Sep-02 01:33N 40°40' W 074°08'5 5.5
2015-Sep-02 00:33N 40°36' W 074°12'0 0.0
2015-Sep-01 23:33N 40°36' W 074°12'1 1.3
2015-Sep-01 22:33N 40°37' W 074°12'7 7.4
2015-Sep-01 21:34N 40°39' W 074°03'1 0.8
2015-Sep-01 20:33N 40°40' W 074°04'4 4.5
2015-Sep-01 19:33N 40°38' W 074°10'0 0.0
2015-Sep-01 18:33N 40°38' W 074°10'0 0.0
2015-Sep-01 17:33N 40°38' W 074°10'0 0.0
2015-Sep-01 16:33N 40°38' W 074°10'0 0.0
2015-Sep-01 15:33N 40°38' W 074°10'5 4.5
2015-Sep-01 14:33N 40°40' W 074°04'2 1.9
2015-Sep-01 13:33N 40°38' W 074°03'2 1.8
2015-Sep-01 12:33N 40°40' W 074°04'0 0.0
2015-Sep-01 11:33N 40°40' W 074°04'1 0.6
2015-Sep-01 10:33N 40°39' W 074°04'0 0.4
2015-Sep-01 09:33N 40°39' W 074°04'2 2.0
2015-Sep-01 08:33N 40°41' W 074°03'1 1.4
2015-Sep-01 07:33N 40°40' W 074°04'0 0.0
2015-Sep-01 06:33N 40°40' W 074°04'0 0.0
2015-Sep-01 05:33N 40°40' W 074°04'0 0.0
2015-Sep-01 04:33N 40°40' W 074°04'0 0.0
2015-Sep-01 03:33N 40°40' W 074°04'0 0.0
2015-Sep-01 02:33N 40°40' W 074°04'1 1.0
2015-Sep-01 01:33N 40°39' W 074°05'1 1.0
2015-Sep-01 00:33N 40°40' W 074°04'1 0.8
2015-Aug-31 23:33N 40°39' W 074°04'3 3.4
2015-Aug-31 22:33N 40°40' W 074°09'0 0.0
2015-Aug-31 21:33N 40°40' W 074°09'2 2.1
2015-Aug-31 20:33N 40°39' W 074°06'2 2.5
2015-Aug-31 19:33N 40°39' W 074°03'1 1.3
2015-Aug-31 18:33N 40°41' W 074°03'6 5.8
2015-Aug-31 17:33N 40°38' W 074°10'0 0.0
2015-Aug-31 16:33N 40°38' W 074°10'0 0.0
2015-Aug-31 15:33N 40°38' W 074°10'0 0.1
2015-Aug-31 14:33N 40°38' W 074°10'4 3.6
2015-Aug-31 13:33N 40°39' W 074°05'0 0.4
2015-Aug-31 12:33N 40°39' W 074°05'1 1.0
2015-Aug-31 11:33N 40°39' W 074°06'2 2.3
2015-Aug-31 10:33N 40°39' W 074°09'2 2.3
2015-Aug-31 09:33N 40°39' W 074°06'0 0.0
2015-Aug-31 08:33N 40°39' W 074°06'0 0.0
2015-Aug-31 07:33N 40°39' W 074°06'0 0.0
2015-Aug-31 06:33N 40°39' W 074°06'0 0.0
2015-Aug-31 05:33N 40°39' W 074°06'1 0.9
2015-Aug-31 04:33N 40°39' W 074°07'5 4.9
2015-Aug-31 03:33N 40°42' W 074°02'7 6.9
2015-Aug-31 02:33N 40°47' W 073°56'5 4.6
2015-Aug-31 01:33N 40°48' W 073°50'18 6.2
2015-Aug-30 22:33N 40°58' W 073°29'8 7.7
2015-Aug-30 21:33N 41°00' W 073°19'10 8.0
2015-Aug-30 20:21N 40°59' W 073°07'3 0.3
2015-Aug-30 08:13N 40°60' W 073°11'5 7.5
2015-Aug-30 07:33N 41°00' W 073°18'8 7.8
2015-Aug-30 06:33N 40°59' W 073°28'20 6.5
2015-Aug-30 03:28N 40°48' W 073°50'5 5.4
2015-Aug-30 02:33N 40°46' W 073°57'6 6.1
2015-Aug-30 01:33N 40°41' W 074°01'2 1.7
2015-Aug-30 00:33N 40°40' W 074°02'0 0.0
2015-Aug-29 23:33N 40°40' W 074°02'0 0.0
2015-Aug-29 22:33N 40°40' W 074°02'0 0.0
2015-Aug-29 21:33N 40°40' W 074°02'2 1.9
2015-Aug-29 20:33N 40°39' W 074°05'5 5.3
2015-Aug-29 19:33N 40°38' W 074°12'3 2.7
2015-Aug-29 18:24N 40°35' W 074°12'0 0.2
2015-Aug-29 17:33N 40°35' W 074°12'4 3.6
2015-Aug-29 16:33N 40°38' W 074°10'0 0.0
2015-Aug-29 15:33N 40°38' W 074°10'0 0.0
2015-Aug-29 14:33N 40°38' W 074°10'0 0.0
2015-Aug-29 13:33N 40°38' W 074°10'0 0.0
2015-Aug-29 12:34N 40°38' W 074°10'0 0.0
2015-Aug-29 11:33N 40°38' W 074°10'0 0.0
2015-Aug-29 10:33N 40°38' W 074°10'0 0.0
2015-Aug-29 09:33N 40°38' W 074°10'0 0.0
2015-Aug-29 08:33N 40°38' W 074°10'0 0.0
2015-Aug-29 07:33N 40°38' W 074°10'0 0.0
2015-Aug-29 06:33N 40°38' W 074°10'0 0.0
2015-Aug-29 05:33N 40°38' W 074°10'0 0.0
2015-Aug-29 04:33N 40°38' W 074°10'0 0.0
2015-Aug-29 03:33N 40°38' W 074°10'8 7.5
2015-Aug-29 02:33N 40°41' W 074°01'3 3.1
2015-Aug-29 01:33N 40°39' W 074°04'5 4.8
2015-Aug-29 00:33N 40°38' W 074°10'1 1.4
2015-Aug-28 23:33N 40°39' W 074°09'2 2.0
2015-Aug-28 22:33N 40°41' W 074°08'2 2.1
2015-Aug-28 21:33N 40°39' W 074°09'1 0.9
2015-Aug-28 20:33N 40°40' W 074°08'0 0.3
2015-Aug-28 19:33N 40°40' W 074°08'0 0.0
2015-Aug-28 18:33N 40°40' W 074°08'0 0.0
2015-Aug-28 17:33N 40°40' W 074°08'0 0.0
2015-Aug-28 16:33N 40°40' W 074°08'0 0.0
2015-Aug-28 15:33N 40°40' W 074°08'0 0.0
2015-Aug-28 14:33N 40°40' W 074°08'0 0.0
2015-Aug-28 13:33N 40°40' W 074°08'0 0.0
2015-Aug-28 12:33N 40°40' W 074°08'0 0.0
2015-Aug-28 11:33N 40°40' W 074°08'2 1.9
2015-Aug-28 10:33N 40°39' W 074°09'1 1.3
2015-Aug-28 09:33N 40°40' W 074°09'1 0.7
2015-Aug-28 08:33N 40°40' W 074°08'0 0.0
2015-Aug-28 07:33N 40°40' W 074°08'0 0.0
2015-Aug-28 06:33N 40°40' W 074°08'0 0.0
2015-Aug-28 05:33N 40°40' W 074°08'0 0.0
2015-Aug-28 04:33N 40°40' W 074°08'0 0.0
2015-Aug-28 03:33N 40°40' W 074°08'1 0.7
2015-Aug-28 02:33N 40°41' W 074°09'2 1.7
2015-Aug-28 01:33N 40°39' W 074°09'2 1.8
2015-Aug-28 00:33N 40°39' W 074°06'1 0.6
2015-Aug-27 23:33N 40°39' W 074°06'0 0.5
2015-Aug-27 22:33N 40°39' W 074°05'1 1.3
2015-Aug-27 21:33N 40°40' W 074°05'2 1.7
2015-Aug-27 20:33N 40°39' W 074°06'4 4.0
2015-Aug-27 19:33N 40°39' W 074°11'1 1.1
2015-Aug-27 18:33N 40°38' W 074°10'0 0.0
2015-Aug-27 17:33N 40°38' W 074°10'0 0.0
2015-Aug-27 16:33N 40°38' W 074°10'0 0.0
2015-Aug-27 15:33N 40°38' W 074°10'0 0.0
2015-Aug-27 14:33N 40°38' W 074°10'0 0.0
2015-Aug-27 13:33N 40°38' W 074°10'0 0.0
2015-Aug-27 12:33N 40°38' W 074°10'0 0.0
2015-Aug-27 11:33N 40°38' W 074°10'3 3.5
2015-Aug-27 10:33N 40°42' W 074°09'3 3.2
2015-Aug-27 09:31N 40°39' W 074°09'1 0.8
2015-Aug-27 08:34N 40°38' W 074°10'0 0.0
2015-Aug-27 07:33N 40°38' W 074°10'0 0.0
2015-Aug-27 06:33N 40°38' W 074°10'2 2.2
2015-Aug-27 05:33N 40°40' W 074°08'1 0.6
2015-Aug-27 04:33N 40°41' W 074°09'2 2.3
2015-Aug-27 03:27N 40°38' W 074°10'0 0.0
2015-Aug-27 02:27N 40°38' W 074°10'0 0.0
2015-Aug-27 01:33N 40°38' W 074°10'0 0.0
2015-Aug-27 00:33N 40°38' W 074°10'0 0.0
2015-Aug-26 23:33N 40°38' W 074°10'1 0.5
2015-Aug-26 22:33N 40°38' W 074°09'1 0.5
2015-Aug-26 21:33N 40°38' W 074°10'0 0.0
2015-Aug-26 20:33N 40°38' W 074°10'0 0.0
2015-Aug-26 19:25N 40°38' W 074°10'0 0.0
2015-Aug-26 18:21N 40°38' W 074°10'0 0.0
2015-Aug-26 17:07N 40°38' W 074°10'0 0.0
2015-Aug-26 16:26N 40°38' W 074°10'1 1.6
2015-Aug-26 15:32N 40°38' W 074°12'2 1.9
2015-Aug-26 14:32N 40°36' W 074°12'0 0.1
2015-Aug-26 13:27N 40°36' W 074°12'0 0.0
2015-Aug-26 12:25N 40°36' W 074°12'0 0.0
2015-Aug-26 11:32N 40°36' W 074°12'0 0.1
2015-Aug-26 09:23N 40°36' W 074°12'4 0.8
2015-Aug-26 04:06N 40°32' W 074°15'3 5.4
2015-Aug-26 03:31N 40°35' W 074°13'4 4.1
2015-Aug-26 02:32N 40°39' W 074°10'0 0.1
2015-Aug-26 01:34N 40°38' W 074°10'0 0.0
2015-Aug-26 00:33N 40°38' W 074°10'0 0.0
2015-Aug-25 23:33N 40°38' W 074°10'0 0.0
2015-Aug-25 22:24N 40°38' W 074°10'0 0.0
2015-Aug-25 21:34N 40°38' W 074°10'0 0.0
2015-Aug-25 20:33N 40°38' W 074°10'0 0.0
2015-Aug-25 19:33N 40°38' W 074°10'0 0.0
2015-Aug-25 18:33N 40°38' W 074°10'2 1.9
2015-Aug-25 17:28N 40°38' W 074°12'2 2.3
2015-Aug-25 16:33N 40°38' W 074°10'0 0.0
2015-Aug-25 15:33N 40°38' W 074°10'0 0.0
2015-Aug-25 14:33N 40°38' W 074°10'0 0.0
2015-Aug-25 13:33N 40°38' W 074°10'0 0.0
2015-Aug-25 12:33N 40°38' W 074°10'0 0.0
2015-Aug-25 11:33N 40°38' W 074°10'0 0.0
2015-Aug-25 10:33N 40°38' W 074°10'3 2.8
2015-Aug-25 09:33N 40°39' W 074°06'2 1.5
2015-Aug-25 08:33N 40°39' W 074°04'4 4.3
2015-Aug-25 07:33N 40°38' W 074°10'0 0.0
2015-Aug-25 06:33N 40°38' W 074°10'0 0.0
2015-Aug-25 05:33N 40°38' W 074°10'0 0.0
2015-Aug-25 04:33N 40°38' W 074°10'0 0.0
2015-Aug-25 03:33N 40°38' W 074°10'1 0.6
2015-Aug-25 02:33N 40°39' W 074°10'8 7.5
2015-Aug-25 01:32N 40°32' W 074°15'1 1.1
2015-Aug-25 00:33N 40°31' W 074°15'0 0.3
2015-Aug-24 23:33N 40°31' W 074°15'1 0.4
2015-Aug-24 20:09N 40°33' W 074°15'0 0.0
2015-Aug-24 19:18N 40°33' W 074°15'0 0.2
2015-Aug-24 18:22N 40°33' W 074°15'0 0.2
2015-Aug-24 17:32N 40°33' W 074°15'3 2.6
2015-Aug-24 16:30N 40°34' W 074°13'5 4.9
2015-Aug-24 15:33N 40°38' W 074°10'2 1.6
2015-Aug-24 14:33N 40°40' W 074°09'2 1.6
2015-Aug-24 13:33N 40°38' W 074°10'0 0.0
2015-Aug-24 12:33N 40°38' W 074°10'0 0.0
2015-Aug-24 11:33N 40°38' W 074°10'0 0.0
2015-Aug-24 10:33N 40°38' W 074°10'0 0.0
2015-Aug-24 09:33N 40°38' W 074°10'0 0.0
2015-Aug-24 08:33N 40°38' W 074°10'0 0.0
2015-Aug-24 07:33N 40°38' W 074°10'0 0.0
2015-Aug-24 06:33N 40°38' W 074°10'0 0.0
2015-Aug-24 05:33N 40°38' W 074°10'0 0.0
2015-Aug-24 04:33N 40°38' W 074°10'0 0.0
2015-Aug-24 03:33N 40°38' W 074°10'0 0.0
2015-Aug-24 02:33N 40°38' W 074°10'1 1.2
2015-Aug-24 01:33N 40°38' W 074°12'2 1.9
2015-Aug-24 00:33N 40°37' W 074°12'3 3.3
2015-Aug-23 23:31N 40°34' W 074°14'3 2.6
2015-Aug-23 22:29N 40°36' W 074°12'7 7.6
2015-Aug-23 21:33N 40°39' W 074°04'1 0.6
2015-Aug-23 20:33N 40°40' W 074°04'0 0.0
2015-Aug-23 19:33N 40°40' W 074°04'0 0.0
2015-Aug-23 18:33N 40°40' W 074°04'0 0.3
2015-Aug-23 17:33N 40°40' W 074°05'  

Dump ship's entire track history